Time;durP1;ratioP1;P1;durP2;ratioP2;P2;SDS_P1;SDS_P2;PMS_P1;PMS_P2;Temp;Humidity;BMP_temperature;BMP_pressure;BME280_temperature;BME280_humidity;BME280_pressure;Samples;Min_cycle;Max_cycle;Signal;HPM_P1;HPM_P2
2022/03/22 00:00:19;;;;;;;13.30;9.88;;;4.40;95.00;;;;;;4989461;28;20034;-49
2022/03/22 00:02:44;;;;;;;13.48;9.75;;;4.40;95.60;;;;;;4989900;28;20022;-50
2022/03/22 00:05:10;;;;;;;11.90;8.75;;;4.30;96.10;;;;;;4989991;28;20524;-50
2022/03/22 00:07:35;;;;;;;10.45;9.20;;;4.30;96.60;;;;;;4989936;28;20084;-50
2022/03/22 00:10:01;;;;;;;14.48;9.88;;;4.30;95.40;;;;;;4989929;28;20458;-50
2022/03/22 00:12:28;;;;;;;11.77;8.60;;;4.30;96.30;;;;;;4989431;28;20030;-51
2022/03/22 00:14:54;;;;;;;12.70;9.18;;;4.30;96.40;;;;;;4989189;28;20076;-50
2022/03/22 00:17:21;;;;;;;11.18;9.05;;;4.30;95.80;;;;;;4989586;28;20431;-50
2022/03/22 00:19:47;;;;;;;13.93;9.48;;;4.30;96.20;;;;;;4988551;28;20018;-53
2022/03/22 00:22:14;;;;;;;13.98;10.25;;;4.20;96.20;;;;;;4989118;28;20113;-50
2022/03/22 00:24:40;;;;;;;13.93;9.73;;;4.20;96.40;;;;;;4989905;28;20464;-52
2022/03/22 00:27:06;;;;;;;13.65;9.55;;;4.20;96.30;;;;;;4989437;28;20058;-51
2022/03/22 00:29:31;;;;;;;12.18;9.50;;;4.20;96.30;;;;;;4989528;28;20089;-51
2022/03/22 00:31:57;;;;;;;14.75;9.93;;;4.20;96.80;;;;;;4989686;28;20045;-54
2022/03/22 00:34:23;;;;;;;15.20;9.55;;;4.20;96.50;;;;;;4988658;28;20129;-48
2022/03/22 00:36:50;;;;;;;11.80;9.27;;;4.10;96.10;;;;;;4989409;28;20050;-53
2022/03/22 00:39:15;;;;;;;12.38;9.82;;;4.10;96.80;;;;;;4989704;28;20026;-49
2022/03/22 00:41:41;;;;;;;11.20;9.00;;;4.10;96.50;;;;;;4989650;28;20037;-53
2022/03/22 00:44:07;;;;;;;14.57;10.02;;;4.10;96.40;;;;;;4988980;28;20084;-51
2022/03/22 00:46:33;;;;;;;12.80;9.18;;;4.10;96.70;;;;;;4989531;28;20034;-50
2022/03/22 00:49:02;;;;;;;10.68;8.88;;;4.10;96.10;;;;;;4989242;28;20406;-54
2022/03/22 00:51:28;;;;;;;13.00;9.45;;;4.10;96.50;;;;;;4989385;28;20492;-51
2022/03/22 00:53:53;;;;;;;13.73;9.18;;;4.10;96.50;;;;;;4988583;28;20049;-54
2022/03/22 00:56:19;;;;;;;11.88;8.95;;;4.10;96.50;;;;;;4989010;28;20469;-55
2022/03/22 00:58:45;;;;;;;12.60;8.80;;;4.10;96.60;;;;;;4989137;28;20038;-51
2022/03/22 01:01:11;;;;;;;14.20;9.48;;;4.10;96.30;;;;;;4989331;28;20030;-56
2022/03/22 01:03:36;;;;;;;12.23;9.05;;;4.10;96.70;;;;;;4988769;28;20058;-55
2022/03/22 01:06:02;;;;;;;17.40;9.45;;;4.10;96.40;;;;;;4989181;28;20038;-54
2022/03/22 01:08:29;;;;;;;11.63;9.88;;;4.10;95.90;;;;;;4989273;28;20027;-54
2022/03/22 01:10:55;;;;;;;13.23;9.32;;;4.10;96.30;;;;;;4989165;28;20019;-53
2022/03/22 01:13:22;;;;;;;15.48;9.57;;;4.10;95.90;;;;;;4989091;28;20109;-51
2022/03/22 01:15:49;;;;;;;12.80;9.63;;;4.10;95.90;;;;;;4988187;28;20030;-51
2022/03/22 01:18:15;;;;;;;13.23;9.35;;;4.10;96.00;;;;;;4989438;28;20018;-52
2022/03/22 01:20:43;;;;;;;12.52;9.48;;;4.10;95.40;;;;;;4989008;28;20023;-53
2022/03/22 01:23:10;;;;;;;13.88;9.77;;;4.10;95.70;;;;;;4988981;28;20593;-54
2022/03/22 01:25:37;;;;;;;11.32;8.70;;;4.10;95.80;;;;;;4989175;28;20026;-55
2022/03/22 01:28:04;;;;;;;12.10;9.10;;;4.10;96.00;;;;;;4989026;28;20110;-53
2022/03/22 01:30:31;;;;;;;12.90;9.15;;;4.10;95.80;;;;;;4988818;28;20037;-50
2022/03/22 01:32:58;;;;;;;12.25;9.27;;;4.00;96.00;;;;;;4988320;28;20035;-51
2022/03/22 01:35:26;;;;;;;13.45;8.75;;;4.00;96.30;;;;;;4991357;28;20042;-51
2022/03/22 01:37:54;;;;;;;11.10;8.55;;;4.00;96.30;;;;;;4992178;28;20097;-53
2022/03/22 01:40:22;;;;;;;15.85;9.98;;;4.00;96.50;;;;;;4992756;28;20038;-53
2022/03/22 01:42:48;;;;;;;10.98;8.88;;;4.00;96.50;;;;;;4991950;28;20053;-53
2022/03/22 01:45:15;;;;;;;14.05;9.27;;;3.90;97.70;;;;;;4992343;28;20639;-55
2022/03/22 01:47:42;;;;;;;11.65;8.70;;;3.90;97.20;;;;;;4992236;28;20018;-48
2022/03/22 01:50:12;;;;;;;12.43;9.38;;;3.90;98.10;;;;;;4989793;28;20125;-50
2022/03/22 01:52:40;;;;;;;12.82;9.43;;;3.80;98.40;;;;;;4990840;28;20077;-50
2022/03/22 01:55:07;;;;;;;13.80;9.85;;;3.80;98.70;;;;;;4992195;28;20031;-53
2022/03/22 01:57:33;;;;;;;12.65;9.18;;;3.80;98.20;;;;;;4991544;28;20042;-51
2022/03/22 02:00:00;;;;;;;13.60;9.27;;;3.80;98.10;;;;;;4989117;28;20037;-54
2022/03/22 02:07:57;;;;;;;12.43;9.30;;;3.70;98.00;;;;;;4972637;28;20397;-55
2022/03/22 02:10:23;;;;;;;14.10;9.07;;;3.70;97.70;;;;;;4989164;28;20030;-51
2022/03/22 02:12:49;;;;;;;12.68;9.50;;;3.70;98.10;;;;;;4991726;28;20681;-53
2022/03/22 02:15:14;;;;;;;13.43;9.75;;;3.70;98.10;;;;;;4991009;28;20053;-52
2022/03/22 02:17:45;;;;;;;12.48;9.73;;;3.70;98.20;;;;;;4990184;28;20022;-52
2022/03/22 02:20:14;;;;;;;13.48;9.35;;;3.70;98.60;;;;;;4991496;28;20035;-52
2022/03/22 02:23:05;;;;;;;11.65;8.52;;;3.60;98.60;;;;;;4991172;28;20041;-51
2022/03/22 02:25:31;;;;;;;13.32;9.77;;;3.60;99.40;;;;;;4991332;28;20022;-51
2022/03/22 02:27:57;;;;;;;13.02;9.55;;;3.60;99.30;;;;;;4991527;28;20112;-53
2022/03/22 02:30:23;;;;;;;10.60;8.95;;;3.60;99.00;;;;;;4991036;28;20046;-50
2022/03/22 02:32:55;;;;;;;12.05;8.90;;;3.60;99.10;;;;;;4990973;28;20102;-51
2022/03/22 02:35:22;;;;;;;14.75;9.38;;;3.50;99.90;;;;;;4991537;28;20030;-52
2022/03/22 02:37:48;;;;;;;11.77;9.20;;;3.50;99.90;;;;;;4991504;28;20105;-50
2022/03/22 02:40:14;;;;;;;12.55;9.52;;;3.50;99.90;;;;;;4991216;28;20026;-52
2022/03/22 02:42:45;;;;;;;15.48;10.57;;;3.50;99.90;;;;;;4990947;28;20022;-51
2022/03/22 02:45:11;;;;;;;12.57;9.63;;;3.40;99.90;;;;;;4990971;28;20023;-53
2022/03/22 02:47:42;;;;;;;12.85;10.18;;;3.40;99.90;;;;;;4991278;28;20100;-52
2022/03/22 02:50:09;;;;;;;12.77;9.70;;;3.40;99.90;;;;;;4990525;28;20038;-53
2022/03/22 02:52:35;;;;;;;10.68;9.45;;;3.40;99.90;;;;;;4990552;28;20137;-48
2022/03/22 02:55:02;;;;;;;10.40;8.80;;;3.40;99.90;;;;;;4990965;28;20026;-50
2022/03/22 02:57:28;;;;;;;14.85;9.55;;;3.40;99.90;;;;;;4990670;28;20034;-50
2022/03/22 02:59:53;;;;;;;12.07;8.85;;;3.40;99.90;;;;;;4984466;28;20076;-49
2022/03/22 03:02:19;;;;;;;14.35;10.00;;;3.40;99.90;;;;;;4973780;28;20035;-53
2022/03/22 03:04:44;;;;;;;13.88;10.18;;;3.40;99.90;;;;;;4990371;28;20018;-49
2022/03/22 03:07:10;;;;;;;12.23;9.63;;;3.40;99.90;;;;;;4990618;28;20092;-51
2022/03/22 03:09:35;;;;;;;13.88;10.63;;;3.30;99.90;;;;;;4990425;28;20031;-49
2022/03/22 03:12:01;;;;;;;11.77;9.43;;;3.30;99.90;;;;;;4990319;28;20065;-49
2022/03/22 03:14:39;;;;;;;13.25;8.63;;;3.30;99.90;;;;;;4990556;28;20030;-50
2022/03/22 03:17:12;;;;;;;13.30;9.63;;;3.30;99.90;;;;;;4990834;28;20030;-51
2022/03/22 03:19:38;;;;;;;13.10;9.40;;;3.30;99.90;;;;;;4974304;28;20049;-50
2022/03/22 03:22:04;;;;;;;12.57;10.05;;;3.30;99.90;;;;;;4990178;28;20026;-52
2022/03/22 03:24:31;;;;;;;11.70;9.15;;;3.30;99.90;;;;;;4990140;28;20021;-49
2022/03/22 03:26:58;;;;;;;12.27;9.45;;;3.20;99.90;;;;;;4989815;28;20038;-49
2022/03/22 03:29:24;;;;;;;16.63;10.13;;;3.20;99.90;;;;;;4990052;28;20026;-53
2022/03/22 03:31:50;;;;;;;11.65;8.95;;;3.20;99.90;;;;;;4990396;28;20113;-50
2022/03/22 03:34:16;;;;;;;11.65;9.20;;;3.10;99.90;;;;;;4990086;28;20057;-54
2022/03/22 03:36:42;;;;;;;12.77;9.30;;;3.10;99.90;;;;;;4990169;28;20041;-53
2022/03/22 03:39:08;;;;;;;12.82;9.07;;;3.10;99.90;;;;;;4990113;28;20501;-54
2022/03/22 03:47:07;;;;;;;15.00;9.25;;;3.10;99.90;;;;;;4980233;28;20117;-52
2022/03/22 03:49:35;;;;;;;14.55;10.50;;;3.00;99.90;;;;;;4990028;28;20101;-51
2022/03/22 03:52:02;;;;;;;13.05;9.38;;;3.00;99.90;;;;;;4989699;28;20085;-50
2022/03/22 03:54:28;;;;;;;12.70;10.27;;;3.00;99.90;;;;;;4988571;28;20562;-51
2022/03/22 03:56:53;;;;;;;14.85;10.32;;;3.00;99.90;;;;;;4989562;28;20031;-50
2022/03/22 03:59:19;;;;;;;15.80;10.40;;;3.00;99.90;;;;;;4989860;28;20026;-50
2022/03/22 04:01:44;;;;;;;17.20;10.65;;;2.90;99.90;;;;;;4989914;28;20077;-49
2022/03/22 04:04:10;;;;;;;12.30;9.82;;;2.90;99.90;;;;;;4988237;28;20030;-52
2022/03/22 04:06:36;;;;;;;13.52;9.98;;;2.90;99.90;;;;;;4989858;28;20061;-52
2022/03/22 04:09:02;;;;;;;13.95;9.90;;;2.80;99.90;;;;;;4989566;28;20425;-52
2022/03/22 04:11:27;;;;;;;14.63;10.38;;;2.90;99.90;;;;;;4989766;28;20039;-52
2022/03/22 04:13:53;;;;;;;12.82;10.48;;;2.90;99.90;;;;;;4989857;28;20057;-50
2022/03/22 04:16:18;;;;;;;13.60;10.13;;;2.80;99.90;;;;;;4987893;28;20026;-51
2022/03/22 04:18:44;;;;;;;13.80;10.27;;;2.80;99.90;;;;;;4989691;28;20109;-50
2022/03/22 04:21:11;;;;;;;12.90;10.15;;;2.80;99.90;;;;;;4989517;28;20038;-50
2022/03/22 04:23:37;;;;;;;15.07;10.60;;;2.80;99.90;;;;;;4989463;28;20026;-51
2022/03/22 04:26:03;;;;;;;11.88;10.10;;;2.80;99.90;;;;;;4988348;28;20037;-49
2022/03/22 04:33:57;;;;;;;13.88;9.60;;;2.70;99.90;;;;;;4989202;28;20052;-51
2022/03/22 04:36:23;;;;;;;12.68;10.15;;;2.70;99.90;;;;;;4989107;28;20489;-51
2022/03/22 04:38:49;;;;;;;14.75;10.05;;;2.70;99.90;;;;;;4989642;28;20318;-51
2022/03/22 04:41:15;;;;;;;14.07;9.52;;;2.70;99.90;;;;;;4989377;28;20042;-52
2022/03/22 04:43:40;;;;;;;13.95;9.85;;;2.70;99.90;;;;;;4989485;28;20019;-53
2022/03/22 04:46:07;;;;;;;16.13;10.07;;;2.70;99.90;;;;;;4989649;28;20497;-52
2022/03/22 04:48:33;;;;;;;13.20;9.73;;;2.60;99.90;;;;;;4989386;28;20183;-50
2022/03/22 04:56:46;;;;;;;11.90;9.55;;;2.60;99.90;;;;;;4989464;28;20068;-53
2022/03/22 04:59:13;;;;;;;15.85;10.50;;;2.60;99.90;;;;;;5011918;22;20559;-53
2022/03/22 05:01:39;;;;;;;14.90;10.38;;;2.50;99.90;;;;;;4988959;28;20459;-51
2022/03/22 05:04:04;;;;;;;13.30;9.43;;;2.50;99.90;;;;;;4989266;28;20018;-52
2022/03/22 05:06:35;;;;;;;13.80;10.23;;;2.50;99.90;;;;;;4989278;28;20027;-56
2022/03/22 05:09:02;;;;;;;13.35;10.02;;;2.50;99.90;;;;;;4983472;28;20084;-54
2022/03/22 05:11:27;;;;;;;14.93;10.07;;;2.50;99.90;;;;;;4993113;28;20030;-53
2022/03/22 05:13:56;;;;;;;16.08;10.48;;;2.40;99.90;;;;;;4993103;28;20034;-53
2022/03/22 05:16:22;;;;;;;14.68;10.15;;;2.40;99.90;;;;;;4993000;28;20046;-53
2022/03/22 05:18:48;;;;;;;14.63;10.40;;;2.40;99.90;;;;;;4992740;28;20034;-54
2022/03/22 05:21:13;;;;;;;17.13;10.60;;;2.40;99.90;;;;;;4991803;28;20064;-53
2022/03/22 05:23:39;;;;;;;11.90;9.57;;;2.40;99.90;;;;;;4992853;28;20365;-52
2022/03/22 05:26:05;;;;;;;16.27;9.45;;;2.40;99.90;;;;;;4992407;28;20072;-51
2022/03/22 05:28:31;;;;;;;14.88;10.48;;;2.30;99.90;;;;;;4992539;28;20374;-51
2022/03/22 05:30:58;;;;;;;11.73;9.23;;;2.30;99.90;;;;;;4993005;28;20505;-52
2022/03/22 05:33:23;;;;;;;14.50;11.02;;;2.30;99.90;;;;;;4992479;28;20093;-54
2022/03/22 05:35:49;;;;;;;15.65;11.30;;;2.30;99.90;;;;;;4990838;28;20022;-50
2022/03/22 05:38:15;;;;;;;14.48;9.93;;;2.30;99.90;;;;;;4992386;28;20026;-55
2022/03/22 05:40:41;;;;;;;16.15;10.88;;;2.30;99.90;;;;;;4992381;28;20026;-52
2022/03/22 05:43:07;;;;;;;13.57;9.85;;;2.30;99.90;;;;;;4992466;28;20031;-53
2022/03/22 05:45:33;;;;;;;14.15;9.90;;;2.30;99.90;;;;;;4991364;28;20022;-54
2022/03/22 05:48:00;;;;;;;12.95;9.95;;;2.40;99.90;;;;;;4992835;28;20062;-52
2022/03/22 05:50:26;;;;;;;15.35;11.20;;;2.40;99.90;;;;;;4992040;28;20018;-53
2022/03/22 05:52:53;;;;;;;14.90;11.02;;;2.40;99.90;;;;;;4992046;28;20022;-50
2022/03/22 05:55:18;;;;;;;14.55;10.45;;;2.50;99.90;;;;;;4992364;28;20030;-52
2022/03/22 05:57:44;;;;;;;16.55;10.90;;;2.50;99.90;;;;;;4992493;28;20565;-51
2022/03/22 06:00:11;;;;;;;16.73;11.25;;;2.60;99.90;;;;;;4991780;28;20034;-52
2022/03/22 06:02:41;;;;;;;14.73;10.93;;;2.60;99.90;;;;;;4990899;28;20030;-51
2022/03/22 06:05:08;;;;;;;13.20;10.32;;;2.60;99.90;;;;;;4991933;28;20385;-51
2022/03/22 06:07:38;;;;;;;13.00;10.30;;;2.70;99.90;;;;;;4991904;28;20137;-52
2022/03/22 06:10:05;;;;;;;15.77;10.52;;;2.70;99.90;;;;;;4992107;28;20034;-51
2022/03/22 06:12:39;;;;;;;15.00;10.88;;;2.80;99.90;;;;;;4972771;28;20037;-51
2022/03/22 06:15:15;;;;;;;15.88;10.60;;;2.80;99.90;;;;;;4987478;28;20026;-52
2022/03/22 06:17:49;;;;;;;14.25;10.68;;;2.80;99.90;;;;;;4992205;28;20022;-50
2022/03/22 06:20:16;;;;;;;22.45;11.35;;;2.90;99.90;;;;;;4990978;28;20035;-52
2022/03/22 06:22:42;;;;;;;16.27;10.38;;;3.00;99.90;;;;;;4989182;28;20105;-51
2022/03/22 06:25:09;;;;;;;13.27;9.80;;;3.00;99.90;;;;;;4991307;28;20734;-51
2022/03/22 06:27:35;;;;;;;16.30;10.70;;;3.10;99.90;;;;;;4983430;28;20402;-52
2022/03/22 06:30:06;;;;;;;12.85;9.75;;;3.10;99.90;;;;;;4992199;28;20034;-51
2022/03/22 06:32:39;;;;;;;12.10;9.93;;;3.20;99.90;;;;;;4991638;28;20084;-51
2022/03/22 06:35:05;;;;;;;18.83;11.57;;;3.30;99.90;;;;;;4990840;28;20030;-52
2022/03/22 06:37:30;;;;;;;15.55;10.30;;;3.30;99.90;;;;;;4991195;28;20404;-53
2022/03/22 06:39:56;;;;;;;17.42;11.18;;;3.40;99.90;;;;;;4990332;28;20041;-51
2022/03/22 06:42:21;;;;;;;14.95;11.68;;;3.40;99.90;;;;;;4990942;28;20526;-52
2022/03/22 06:44:47;;;;;;;18.70;12.15;;;3.50;99.90;;;;;;4991747;28;20557;-52
2022/03/22 06:47:12;;;;;;;12.15;10.35;;;3.50;99.90;;;;;;4991397;28;20413;-53
2022/03/22 06:49:38;;;;;;;16.20;11.07;;;3.60;99.90;;;;;;4991402;28;20492;-52
2022/03/22 06:52:04;;;;;;;17.38;11.93;;;3.70;99.90;;;;;;4990451;28;20105;-52
2022/03/22 06:54:29;;;;;;;12.60;10.40;;;3.70;99.90;;;;;;4991335;28;20109;-53
2022/03/22 06:56:55;;;;;;;17.35;11.73;;;3.80;99.90;;;;;;4991049;28;20027;-54
2022/03/22 06:59:21;;;;;;;17.23;11.75;;;4.00;99.90;;;;;;4990693;28;20027;-53
2022/03/22 07:01:46;;;;;;;14.90;11.52;;;4.00;99.90;;;;;;4990846;28;20029;-52
2022/03/22 07:04:12;;;;;;;21.00;12.40;;;4.20;99.90;;;;;;4991332;28;20034;-52
2022/03/22 07:06:37;;;;;;;16.67;10.75;;;4.30;99.90;;;;;;4991176;28;20073;-52
2022/03/22 07:09:03;;;;;;;18.15;11.70;;;4.40;99.90;;;;;;4991368;28;20073;-52
2022/03/22 07:14:12;;;;;;;15.77;11.10;;;4.70;99.90;;;;;;4990647;28;20404;-53
2022/03/22 07:16:38;;;;;;;16.02;11.80;;;4.90;99.50;;;;;;4990088;28;20034;-53
2022/03/22 07:19:04;;;;;;;17.17;12.02;;;5.00;99.00;;;;;;4990462;28;20045;-53
2022/03/22 07:21:29;;;;;;;13.93;11.70;;;5.10;99.90;;;;;;4990880;28;20074;-52
2022/03/22 07:23:55;;;;;;;17.63;12.70;;;5.20;99.90;;;;;;4990791;28;20022;-52
2022/03/22 07:26:22;;;;;;;14.50;12.00;;;5.40;99.20;;;;;;4990309;28;20110;-51
2022/03/22 07:28:48;;;;;;;16.40;11.95;;;5.50;97.80;;;;;;4990810;28;20019;-50
2022/03/22 07:31:13;;;;;;;17.52;12.48;;;5.60;98.80;;;;;;4989653;28;20041;-51
2022/03/22 07:33:39;;;;;;;17.35;13.15;;;5.80;97.40;;;;;;4990187;28;20022;-52
2022/03/22 07:36:05;;;;;;;18.17;11.75;;;5.90;96.40;;;;;;4979695;28;20027;-54
2022/03/22 07:38:31;;;;;;;16.15;12.57;;;6.00;96.30;;;;;;4980225;28;20126;-53
2022/03/22 07:40:56;;;;;;;17.65;11.40;;;6.20;95.50;;;;;;4982762;28;20027;-53
2022/03/22 07:43:23;;;;;;;15.82;12.30;;;6.30;96.20;;;;;;4970505;28;20026;-52
2022/03/22 07:45:49;;;;;;;15.45;11.23;;;6.40;96.50;;;;;;4987350;28;20018;-54
2022/03/22 07:48:16;;;;;;;17.13;12.55;;;6.50;96.60;;;;;;4991513;28;20029;-53
2022/03/22 07:53:25;;;;;;;16.83;12.75;;;6.70;96.80;;;;;;4990364;28;20037;-52
2022/03/22 07:55:51;;;;;;;16.58;12.05;;;6.90;94.80;;;;;;4990268;28;20026;-54
2022/03/22 07:58:17;;;;;;;16.70;11.68;;;7.00;95.80;;;;;;4989786;28;20109;-54
2022/03/22 08:00:43;;;;;;;17.83;12.68;;;7.20;94.50;;;;;;4991001;28;20053;-52
2022/03/22 08:03:12;;;;;;;15.85;12.15;;;7.40;92.80;;;;;;4990299;28;20042;-52
2022/03/22 08:05:39;;;;;;;17.15;12.65;;;7.50;93.30;;;;;;4987981;28;20034;-53
2022/03/22 08:08:05;;;;;;;19.02;12.85;;;7.70;94.00;;;;;;4990257;28;20046;-52
2022/03/22 08:10:32;;;;;;;15.82;12.60;;;8.00;91.40;;;;;;4990220;28;20117;-55
2022/03/22 08:12:59;;;;;;;18.08;11.80;;;8.20;92.30;;;;;;4989860;28;20505;-53
2022/03/22 08:15:24;;;;;;;15.82;12.02;;;8.40;90.30;;;;;;4989507;28;20503;-54
2022/03/22 08:17:50;;;;;;;13.65;12.10;;;8.60;90.70;;;;;;4989969;28;20030;-52
2022/03/22 08:20:16;;;;;;;15.35;12.07;;;8.80;90.70;;;;;;4990255;28;20064;-52
2022/03/22 08:22:52;;;;;;;16.92;12.65;;;8.90;90.80;;;;;;4989554;28;20488;-53
2022/03/22 08:25:23;;;;;;;17.02;12.38;;;9.00;90.00;;;;;;4990454;28;20117;-52
2022/03/22 08:27:49;;;;;;;16.02;12.30;;;9.20;90.50;;;;;;4989610;28;20026;-53
2022/03/22 08:30:18;;;;;;;17.85;12.15;;;9.40;90.40;;;;;;4988674;28;20493;-53
2022/03/22 08:32:48;;;;;;;16.70;13.32;;;9.60;90.00;;;;;;4989533;28;20112;-52
2022/03/22 08:35:13;;;;;;;13.65;11.27;;;9.80;87.00;;;;;;4989361;28;20041;-51
2022/03/22 08:37:39;;;;;;;15.15;12.43;;;10.10;85.50;;;;;;4989158;28;20109;-53
2022/03/22 08:40:05;;;;;;;15.40;11.50;;;10.30;80.60;;;;;;4989120;28;20501;-52
2022/03/22 08:42:31;;;;;;;15.40;11.63;;;10.50;83.20;;;;;;4989106;28;20098;-52
2022/03/22 08:44:56;;;;;;;14.77;11.23;;;10.80;84.80;;;;;;4993880;28;20616;-52
2022/03/22 08:47:22;;;;;;;18.00;12.60;;;11.00;83.30;;;;;;4993128;28;20089;-53
2022/03/22 08:49:48;;;;;;;13.65;11.63;;;11.20;81.60;;;;;;4993151;28;20405;-54
2022/03/22 08:52:14;;;;;;;17.38;11.70;;;11.40;79.00;;;;;;4993034;28;20026;-53
2022/03/22 08:54:40;;;;;;;13.52;12.00;;;11.60;74.90;;;;;;4993790;28;20022;-53
2022/03/22 08:57:05;;;;;;;15.75;12.07;;;11.80;77.10;;;;;;4993259;28;20049;-53
2022/03/22 08:59:31;;;;;;;16.45;13.27;;;11.90;71.70;;;;;;4992664;28;20040;-55
2022/03/22 09:01:57;;;;;;;14.48;12.35;;;12.10;75.80;;;;;;4992890;28;20405;-50
2022/03/22 09:07:07;;;;;;;13.18;11.77;;;12.50;77.30;;;;;;4993540;28;20038;-53
2022/03/22 09:09:33;;;;;;;16.48;11.95;;;12.70;71.10;;;;;;4992785;28;20034;-53
2022/03/22 09:11:58;;;;;;;17.67;12.50;;;12.90;70.10;;;;;;4993344;28;20132;-52
2022/03/22 09:14:24;;;;;;;15.80;12.43;;;13.00;70.30;;;;;;4991503;28;20049;-52
2022/03/22 09:16:49;;;;;;;17.00;13.27;;;13.10;70.50;;;;;;4993224;28;20027;-53
2022/03/22 09:19:15;;;;;;;17.02;12.82;;;13.30;70.00;;;;;;4992992;28;20027;-56
2022/03/22 09:21:41;;;;;;;18.13;13.07;;;13.40;68.10;;;;;;4991519;28;20097;-52
2022/03/22 09:24:07;;;;;;;14.48;13.02;;;13.50;68.20;;;;;;4992032;28;20433;-52
2022/03/22 09:26:33;;;;;;;18.80;13.35;;;13.70;68.10;;;;;;4992471;28;20022;-55
2022/03/22 09:28:58;;;;;;;15.82;12.65;;;13.60;66.20;;;;;;4993241;28;20509;-52
2022/03/22 09:31:24;;;;;;;17.65;12.48;;;13.70;67.50;;;;;;4992819;28;20030;-52
2022/03/22 09:33:51;;;;;;;19.70;13.35;;;13.90;68.90;;;;;;4992888;28;20034;-52
2022/03/22 09:36:17;;;;;;;21.17;13.10;;;14.00;65.50;;;;;;4993144;28;20511;-53
2022/03/22 09:38:44;;;;;;;15.55;12.30;;;14.20;64.40;;;;;;4992952;28;20042;-54
2022/03/22 09:41:13;;;;;;;14.77;11.95;;;14.30;63.80;;;;;;4992624;28;20015;-53
2022/03/22 09:43:48;;;;;;;17.85;13.27;;;14.30;63.40;;;;;;4992964;28;20404;-55
2022/03/22 09:46:22;;;;;;;15.18;13.57;;;14.40;61.00;;;;;;4993117;28;20030;-52
2022/03/22 09:48:48;;;;;;;14.43;12.15;;;14.30;61.00;;;;;;4992342;28;20026;-55
2022/03/22 09:54:00;;;;;;;15.48;12.57;;;14.50;64.40;;;;;;4992546;28;20512;-52
2022/03/22 09:56:30;;;;;;;15.15;12.15;;;14.70;60.10;;;;;;4991553;28;20459;-52
2022/03/22 09:59:00;;;;;;;16.55;12.65;;;14.80;60.70;;;;;;4991162;28;20033;-52
2022/03/22 10:01:26;;;;;;;14.77;13.18;;;15.00;62.40;;;;;;4991980;28;20050;-52
2022/03/22 10:04:12;;;;;;;16.00;13.15;;;15.10;63.30;;;;;;4991959;28;20493;-54
2022/03/22 10:06:54;;;;;;;14.57;11.68;;;15.30;61.00;;;;;;4992639;28;20066;-53
2022/03/22 10:09:39;;;;;;;16.80;12.90;;;15.40;61.80;;;;;;4990864;28;20042;-52
2022/03/22 10:12:07;;;;;;;16.33;12.77;;;15.50;58.20;;;;;;4992138;28;20398;-54
2022/03/22 10:14:41;;;;;;;15.90;12.98;;;15.60;58.90;;;;;;4991949;28;20034;-52
2022/03/22 10:17:11;;;;;;;14.52;12.63;;;15.40;57.10;;;;;;4991303;28;20034;-52
2022/03/22 10:19:47;;;;;;;16.63;13.13;;;15.40;59.20;;;;;;4991301;28;20400;-52
2022/03/22 10:22:13;;;;;;;13.75;11.93;;;15.60;59.10;;;;;;4992123;28;20053;-53
2022/03/22 10:24:49;;;;;;;17.02;13.35;;;15.80;58.60;;;;;;4991882;28;20054;-53
2022/03/22 10:27:35;;;;;;;15.85;13.35;;;15.90;60.20;;;;;;4990910;28;20014;-53
2022/03/22 10:30:08;;;;;;;16.63;12.82;;;16.00;58.50;;;;;;4991750;28;20440;-53
2022/03/22 10:32:39;;;;;;;16.05;12.43;;;16.10;59.40;;;;;;4991841;28;20029;-55
2022/03/22 10:35:16;;;;;;;15.95;12.60;;;16.20;58.40;;;;;;4992295;28;20030;-52
2022/03/22 10:37:43;;;;;;;15.18;12.85;;;16.20;57.60;;;;;;4992182;28;20033;-52
2022/03/22 10:40:25;;;;;;;16.65;14.00;;;16.30;57.70;;;;;;4991690;28;20077;-54
2022/03/22 10:42:54;;;;;;;17.13;12.85;;;16.50;58.70;;;;;;4990987;28;20492;-54
2022/03/22 10:45:20;;;;;;;19.30;13.25;;;16.50;56.60;;;;;;4991480;28;20061;-52
2022/03/22 10:47:46;;;;;;;16.48;13.27;;;16.50;55.10;;;;;;4991213;28;20120;-56
2022/03/22 10:50:13;;;;;;;15.55;12.82;;;16.40;57.30;;;;;;4991554;28;20157;-52
2022/03/22 10:52:53;;;;;;;17.90;11.70;;;16.50;56.90;;;;;;4990838;28;20022;-53
2022/03/22 10:55:21;;;;;;;15.30;12.90;;;16.50;57.60;;;;;;4991098;28;20538;-53
2022/03/22 10:57:52;;;;;;;16.50;13.15;;;16.60;56.00;;;;;;4990095;28;20409;-53
2022/03/22 11:00:18;;;;;;;18.48;13.35;;;16.60;55.70;;;;;;4991346;28;20038;-52
2022/03/22 11:02:48;;;;;;;16.42;13.27;;;16.60;54.10;;;;;;4991554;28;20031;-52
2022/03/22 11:05:14;;;;;;;16.33;13.10;;;16.60;54.20;;;;;;4990236;28;20037;-52
2022/03/22 11:07:41;;;;;;;13.70;11.77;;;16.60;54.10;;;;;;4990540;28;20485;-54
2022/03/22 11:10:07;;;;;;;14.82;12.32;;;16.60;55.50;;;;;;4991064;28;20603;-52
2022/03/22 11:12:34;;;;;;;15.38;12.23;;;16.70;56.10;;;;;;4991166;28;20089;-50
2022/03/22 11:15:02;;;;;;;13.95;12.45;;;16.80;56.30;;;;;;4991211;28;20170;-52
2022/03/22 11:17:33;;;;;;;14.23;12.73;;;16.90;54.90;;;;;;4990805;28;20030;-51
2022/03/22 11:19:59;;;;;;;16.52;13.90;;;16.90;55.80;;;;;;4991111;28;20112;-52
2022/03/22 11:22:25;;;;;;;15.77;13.20;;;17.00;54.40;;;;;;4990803;28;20042;-53
2022/03/22 11:24:51;;;;;;;16.20;12.75;;;16.90;54.70;;;;;;4990794;28;20026;-52
2022/03/22 11:27:29;;;;;;;18.23;14.13;;;17.00;54.60;;;;;;4990781;28;20022;-52
2022/03/22 11:29:55;;;;;;;15.65;12.65;;;17.00;55.40;;;;;;4990445;28;20033;-52
2022/03/22 11:35:13;;;;;;;14.63;13.13;;;17.00;54.80;;;;;;4991023;28;20543;-53
2022/03/22 11:37:40;;;;;;;16.73;13.10;;;17.10;55.40;;;;;;4990796;28;20034;-52
2022/03/22 11:43:00;;;;;;;14.75;12.55;;;17.30;53.70;;;;;;4990486;28;20084;-53
2022/03/22 11:45:26;;;;;;;17.15;13.30;;;17.30;52.50;;;;;;4990842;28;20181;-54
2022/03/22 11:47:53;;;;;;;18.70;14.07;;;17.30;54.40;;;;;;4990490;28;20121;-57
2022/03/22 11:50:21;;;;;;;15.02;12.90;;;17.40;53.00;;;;;;4990618;28;20030;-54
2022/03/22 11:52:48;;;;;;;13.38;11.75;;;17.50;53.80;;;;;;4990471;28;20574;-54
2022/03/22 11:55:22;;;;;;;16.50;13.88;;;17.50;54.00;;;;;;4990528;28;20124;-56
2022/03/22 11:57:54;;;;;;;14.70;11.77;;;17.50;54.00;;;;;;4990142;28;20053;-56
2022/03/22 12:00:38;;;;;;;15.57;13.10;;;17.50;52.60;;;;;;4990109;28;20496;-53
2022/03/22 12:03:12;;;;;;;16.65;12.43;;;17.60;53.60;;;;;;4989971;28;20037;-52
2022/03/22 12:05:38;;;;;;;15.10;12.88;;;17.60;53.30;;;;;;4990199;28;20170;-51
2022/03/22 12:08:13;;;;;;;15.60;11.48;;;17.60;55.40;;;;;;4988518;28;20587;-53
2022/03/22 12:10:40;;;;;;;14.35;11.05;;;17.70;53.40;;;;;;4990380;28;20026;-54
2022/03/22 12:13:06;;;;;;;13.77;11.23;;;17.70;52.50;;;;;;4990050;28;20030;-51
2022/03/22 12:15:32;;;;;;;17.52;12.02;;;17.70;52.70;;;;;;4989679;28;20034;-54
2022/03/22 12:17:57;;;;;;;15.27;13.30;;;17.70;51.60;;;;;;4989604;28;20513;-55
2022/03/22 12:20:24;;;;;;;14.23;12.73;;;17.60;53.50;;;;;;4990569;28;20034;-54
2022/03/22 12:22:53;;;;;;;14.50;12.30;;;17.60;53.80;;;;;;4990003;28;20034;-55
2022/03/22 12:25:24;;;;;;;14.20;12.57;;;17.70;53.20;;;;;;4990449;28;20392;-53
2022/03/22 12:27:53;;;;;;;13.77;10.90;;;17.80;53.60;;;;;;4990473;28;20027;-54
2022/03/22 12:30:20;;;;;;;12.63;11.23;;;17.80;50.80;;;;;;4990069;28;20101;-53
2022/03/22 12:32:50;;;;;;;15.05;12.15;;;17.70;51.50;;;;;;4995391;28;20611;-56
2022/03/22 12:35:16;;;;;;;14.88;11.35;;;17.80;52.30;;;;;;5008952;28;20026;-53
2022/03/22 12:37:41;;;;;;;14.15;11.48;;;17.90;52.50;;;;;;5009515;28;20026;-56
2022/03/22 12:40:07;;;;;;;15.63;11.70;;;17.90;53.00;;;;;;5009140;28;20088;-56
2022/03/22 12:42:33;;;;;;;14.95;12.07;;;17.90;52.70;;;;;;5009278;28;20109;-53
2022/03/22 12:44:59;;;;;;;12.50;11.23;;;18.00;51.90;;;;;;4989413;28;20030;-53
2022/03/22 12:47:24;;;;;;;14.18;11.07;;;18.10;53.10;;;;;;4989309;28;20026;-53
2022/03/22 12:49:50;;;;;;;13.05;11.00;;;18.10;52.70;;;;;;4989928;28;20417;-54
2022/03/22 12:52:16;;;;;;;17.92;11.43;;;18.10;52.90;;;;;;4989662;28;20026;-57
2022/03/22 12:54:43;;;;;;;15.90;11.95;;;18.20;50.70;;;;;;4989641;28;20073;-52
2022/03/22 12:57:12;;;;;;;13.63;10.57;;;18.10;51.20;;;;;;4989689;28;20628;-54
2022/03/22 12:59:39;;;;;;;14.85;11.38;;;18.10;51.20;;;;;;4988882;28;20034;-55
2022/03/22 13:02:06;;;;;;;13.63;10.40;;;18.10;51.20;;;;;;4988394;28;20022;-54
2022/03/22 13:04:46;;;;;;;12.45;10.88;;;18.10;51.50;;;;;;4989180;28;20022;-56
2022/03/22 13:07:23;;;;;;;15.40;11.27;;;18.20;50.90;;;;;;4988413;28;20034;-53
2022/03/22 13:12:37;;;;;;;12.65;10.63;;;18.30;51.80;;;;;;4989569;28;20567;-54
2022/03/22 13:15:10;;;;;;;17.50;11.63;;;18.30;51.70;;;;;;4989435;28;20484;-53
2022/03/22 13:17:48;;;;;;;14.35;12.85;;;18.30;51.00;;;;;;4989169;28;20022;-54